Time;durP1;ratioP1;P1;durP2;ratioP2;P2;SDS_P1;SDS_P2;PMS_P1;PMS_P2;Temp;Humidity;BMP_temperature;BMP_pressure;BME280_temperature;BME280_humidity;BME280_pressure;Samples;Min_cycle;Max_cycle;Signal;HPM_P1;HPM_P2
2022/06/25 00:01:22;;;;;;;22.70;18.70;;;17.80;99.90;;;;;;5050911;28;20120;-67
2022/06/25 00:03:48;;;;;;;21.98;19.70;;;17.80;99.90;;;;;;5050792;28;20028;-67
2022/06/25 00:06:15;;;;;;;23.50;21.00;;;17.80;99.90;;;;;;5042178;28;20049;-67
2022/06/25 00:08:41;;;;;;;22.45;19.05;;;17.80;99.90;;;;;;5049970;28;20048;-67
2022/06/25 00:11:07;;;;;;;21.55;18.33;;;17.80;99.90;;;;;;5045701;28;20037;-67
2022/06/25 00:13:34;;;;;;;25.55;20.73;;;17.80;99.90;;;;;;5043869;28;20128;-67
2022/06/25 00:16:01;;;;;;;24.08;21.48;;;17.80;99.90;;;;;;5042010;28;20041;-66
2022/06/25 00:18:27;;;;;;;25.13;22.40;;;17.80;99.90;;;;;;5044742;28;20065;-67
2022/06/25 00:20:52;;;;;;;26.02;23.25;;;17.70;99.90;;;;;;5050812;28;20090;-66
2022/06/25 00:23:18;;;;;;;27.52;23.30;;;17.70;99.90;;;;;;5048356;28;20467;-66
2022/06/25 00:25:44;;;;;;;27.38;23.88;;;17.70;99.90;;;;;;5048551;28;20033;-67
2022/06/25 00:28:09;;;;;;;26.52;23.77;;;17.70;99.90;;;;;;5048289;28;20041;-67
2022/06/25 00:30:35;;;;;;;30.13;26.23;;;17.70;99.90;;;;;;5043371;28;20053;-67
2022/06/25 00:33:01;;;;;;;31.73;27.92;;;17.70;99.90;;;;;;5051534;28;20040;-67
2022/06/25 00:35:27;;;;;;;28.95;26.02;;;17.70;99.90;;;;;;5049644;28;20037;-67
2022/06/25 00:37:52;;;;;;;32.20;28.13;;;17.70;99.90;;;;;;5048033;28;20079;-66
2022/06/25 00:40:18;;;;;;;36.72;29.58;;;17.70;99.90;;;;;;5043446;28;20040;-67
2022/06/25 00:42:46;;;;;;;31.48;27.23;;;17.70;99.90;;;;;;5040189;28;20040;-67
2022/06/25 00:45:12;;;;;;;30.42;25.55;;;17.70;99.90;;;;;;5051909;28;20076;-67
2022/06/25 00:47:38;;;;;;;33.95;27.30;;;17.70;99.90;;;;;;5046540;28;20064;-66
2022/06/25 00:50:05;;;;;;;33.22;27.30;;;17.70;99.90;;;;;;5042755;28;20397;-67
2022/06/25 00:52:33;;;;;;;36.65;28.23;;;17.70;99.90;;;;;;5043999;28;20045;-67
2022/06/25 00:55:06;;;;;;;32.70;26.70;;;17.70;99.90;;;;;;5045641;28;20475;-67
2022/06/25 00:57:34;;;;;;;30.55;25.15;;;17.60;99.90;;;;;;5059714;28;20132;-68
2022/06/25 01:00:06;;;;;;;29.15;25.88;;;17.60;99.90;;;;;;5042725;28;20043;-67
2022/06/25 01:02:31;;;;;;;32.67;26.38;;;17.60;99.90;;;;;;5051231;28;20040;-67
2022/06/25 01:04:57;;;;;;;33.60;27.88;;;17.60;99.90;;;;;;5050915;28;20506;-67
2022/06/25 01:07:23;;;;;;;30.77;26.73;;;17.60;99.90;;;;;;5065099;28;20469;-66
2022/06/25 01:09:50;;;;;;;32.10;27.15;;;17.60;99.90;;;;;;5037619;28;20063;-66
2022/06/25 01:12:16;;;;;;;31.85;25.98;;;17.60;99.90;;;;;;5047918;28;20075;-66
2022/06/25 01:14:42;;;;;;;41.03;27.33;;;17.60;99.90;;;;;;5049863;28;20037;-66
2022/06/25 01:17:09;;;;;;;30.63;26.52;;;17.50;99.90;;;;;;5046033;28;20043;-66
2022/06/25 01:19:36;;;;;;;34.63;26.20;;;17.50;99.90;;;;;;5048455;28;20118;-66
2022/06/25 01:22:05;;;;;;;29.90;24.73;;;17.50;99.90;;;;;;5059102;28;20037;-67
2022/06/25 01:24:31;;;;;;;27.65;23.58;;;17.50;99.90;;;;;;5048403;28;20044;-66
2022/06/25 01:26:57;;;;;;;27.40;24.48;;;17.50;99.90;;;;;;5047658;28;20120;-67
2022/06/25 01:29:24;;;;;;;30.48;24.13;;;17.50;99.90;;;;;;5048717;28;20068;-66
2022/06/25 01:31:51;;;;;;;27.08;22.33;;;17.50;99.90;;;;;;5046975;28;20029;-66
2022/06/25 01:34:17;;;;;;;25.25;22.48;;;17.50;99.90;;;;;;5051222;28;20080;-67
2022/06/25 01:36:43;;;;;;;28.10;21.83;;;17.50;99.90;;;;;;5047781;28;20069;-66
2022/06/25 01:39:08;;;;;;;29.48;23.02;;;17.50;99.90;;;;;;5047248;28;20041;-67
2022/06/25 01:41:34;;;;;;;25.45;22.08;;;17.50;99.90;;;;;;5040090;28;20080;-66
2022/06/25 01:44:00;;;;;;;28.48;22.98;;;17.40;99.90;;;;;;5047725;28;20044;-66
2022/06/25 01:46:25;;;;;;;25.77;21.77;;;17.40;99.90;;;;;;5043670;28;20049;-66
2022/06/25 01:48:51;;;;;;;25.08;20.50;;;17.40;99.90;;;;;;5044595;28;20435;-67
2022/06/25 01:51:17;;;;;;;24.42;21.75;;;17.30;99.90;;;;;;5041087;28;20045;-66
2022/06/25 01:53:44;;;;;;;24.45;20.60;;;17.30;99.90;;;;;;5041188;28;20049;-66
2022/06/25 01:56:10;;;;;;;26.33;18.50;;;17.30;99.90;;;;;;5063468;28;20049;-67
2022/06/25 01:58:36;;;;;;;25.75;20.73;;;17.30;99.90;;;;;;5049673;28;20049;-66
2022/06/25 02:01:03;;;;;;;20.38;18.23;;;17.30;99.90;;;;;;5049468;28;20033;-66
2022/06/25 02:03:28;;;;;;;23.00;20.50;;;17.30;99.90;;;;;;5048144;28;20128;-66
2022/06/25 02:05:57;;;;;;;25.33;21.58;;;17.20;99.90;;;;;;5051938;28;20144;-66
2022/06/25 02:08:27;;;;;;;28.08;21.10;;;17.30;99.90;;;;;;5044827;28;20057;-67
2022/06/25 02:10:53;;;;;;;23.85;19.45;;;17.30;99.90;;;;;;5038832;28;20430;-66
2022/06/25 02:13:20;;;;;;;24.02;20.42;;;17.20;99.90;;;;;;5051616;28;20482;-67
2022/06/25 02:15:45;;;;;;;25.42;18.50;;;17.20;99.90;;;;;;5034862;28;20034;-66
2022/06/25 02:18:11;;;;;;;27.00;21.23;;;17.20;99.90;;;;;;5049155;28;20399;-66
2022/06/25 02:20:37;;;;;;;32.85;20.63;;;17.10;99.90;;;;;;5049903;28;21679;-65
2022/06/25 02:23:03;;;;;;;24.25;21.15;;;17.20;99.90;;;;;;5037264;28;20038;-67
2022/06/25 02:25:29;;;;;;;24.17;19.10;;;17.10;99.90;;;;;;5044545;28;20037;-67
2022/06/25 02:27:55;;;;;;;22.23;19.65;;;17.10;99.90;;;;;;5059436;28;20071;-68
2022/06/25 02:30:21;;;;;;;29.20;20.92;;;17.10;99.90;;;;;;5053920;28;20128;-66
2022/06/25 02:32:47;;;;;;;26.40;20.35;;;17.10;99.90;;;;;;5045215;28;20037;-66
2022/06/25 02:35:13;;;;;;;26.67;20.35;;;17.00;99.90;;;;;;5046586;28;20106;-66
2022/06/25 02:37:39;;;;;;;26.40;19.75;;;17.00;99.90;;;;;;5046748;28;20045;-67
2022/06/25 02:40:05;;;;;;;25.73;21.13;;;17.00;99.90;;;;;;5046925;28;20506;-66
2022/06/25 02:42:35;;;;;;;23.45;19.50;;;17.00;99.90;;;;;;5051681;28;20041;-65
2022/06/25 02:45:01;;;;;;;24.10;19.60;;;17.00;99.90;;;;;;5043838;28;20067;-65
2022/06/25 02:47:26;;;;;;;25.58;19.05;;;17.00;99.90;;;;;;5042366;28;20049;-65
2022/06/25 02:49:52;;;;;;;27.98;19.63;;;17.00;99.90;;;;;;5044444;28;20040;-66
2022/06/25 02:52:17;;;;;;;24.42;19.13;;;16.90;99.90;;;;;;5038766;28;20187;-66
2022/06/25 02:54:43;;;;;;;23.20;20.00;;;17.10;99.90;;;;;;5041236;28;20045;-65
2022/06/25 02:59:53;;;;;;;22.70;18.20;;;16.90;99.90;;;;;;5043504;28;20066;-67
2022/06/25 03:02:19;;;;;;;21.67;18.30;;;16.90;99.90;;;;;;5037417;28;20124;-66
2022/06/25 03:04:45;;;;;;;20.25;16.52;;;16.90;99.90;;;;;;5044289;28;20102;-67
2022/06/25 03:07:11;;;;;;;19.60;17.30;;;16.90;99.90;;;;;;5048091;28;20057;-65
2022/06/25 03:09:36;;;;;;;21.08;17.95;;;16.90;99.90;;;;;;5040683;28;20045;-67
2022/06/25 03:12:02;;;;;;;20.98;17.55;;;16.90;99.90;;;;;;5045167;28;20116;-67
2022/06/25 03:14:28;;;;;;;20.27;16.50;;;16.90;99.90;;;;;;5047874;28;20079;-66
2022/06/25 03:16:54;;;;;;;21.23;17.58;;;16.80;99.90;;;;;;5044045;28;20578;-66
2022/06/25 03:19:19;;;;;;;19.30;17.25;;;16.80;99.90;;;;;;5043572;28;20056;-67
2022/06/25 03:21:46;;;;;;;22.33;18.17;;;16.80;99.90;;;;;;5041554;28;20037;-66
2022/06/25 03:24:12;;;;;;;22.40;17.33;;;16.80;99.90;;;;;;5045081;28;20124;-66
2022/06/25 03:26:38;;;;;;;21.20;16.40;;;16.80;99.90;;;;;;5044424;28;20048;-66
2022/06/25 03:29:04;;;;;;;20.75;17.08;;;16.80;99.90;;;;;;5045318;28;20041;-66
2022/06/25 03:31:30;;;;;;;19.65;16.83;;;16.80;99.90;;;;;;5040509;28;20492;-66
2022/06/25 03:33:55;;;;;;;18.27;15.70;;;16.80;99.90;;;;;;5042413;28;20079;-66
2022/06/25 03:36:21;;;;;;;17.48;15.23;;;16.70;99.90;;;;;;5044787;28;20495;-66
2022/06/25 03:38:47;;;;;;;22.25;16.30;;;16.70;99.90;;;;;;5045306;28;20045;-66
2022/06/25 03:43:57;;;;;;;18.40;15.35;;;16.80;99.90;;;;;;5047131;28;20053;-67
2022/06/25 03:46:22;;;;;;;17.27;15.07;;;16.80;99.90;;;;;;5042146;28;20046;-66
2022/06/25 03:48:48;;;;;;;20.88;15.48;;;16.70;99.90;;;;;;5042517;28;20057;-66
2022/06/25 03:51:14;;;;;;;17.83;15.65;;;16.70;99.90;;;;;;5040056;28;20398;-67
2022/06/25 03:53:40;;;;;;;21.35;15.20;;;16.70;99.90;;;;;;5042866;28;20071;-66
2022/06/25 03:56:05;;;;;;;20.55;15.25;;;16.70;99.90;;;;;;5038673;28;20091;-67
2022/06/25 03:58:31;;;;;;;16.42;14.57;;;16.70;99.90;;;;;;5045902;28;20110;-67
2022/06/25 04:00:58;;;;;;;15.85;14.15;;;16.70;99.90;;;;;;5034063;28;20741;-66
2022/06/25 04:03:23;;;;;;;18.65;16.00;;;16.70;99.90;;;;;;5047636;28;20041;-66
2022/06/25 04:05:49;;;;;;;17.60;15.25;;;16.70;99.90;;;;;;5042964;28;20056;-66
2022/06/25 04:08:15;;;;;;;19.13;14.40;;;16.70;99.90;;;;;;5049120;28;20045;-66
2022/06/25 04:10:42;;;;;;;15.85;13.70;;;16.70;99.90;;;;;;5048781;28;20072;-66
2022/06/25 04:13:08;;;;;;;18.33;14.52;;;16.70;99.90;;;;;;5047126;28;20037;-66
2022/06/25 04:15:35;;;;;;;15.30;13.70;;;16.70;99.90;;;;;;5047591;28;20045;-66
2022/06/25 04:18:02;;;;;;;18.10;13.05;;;16.70;99.90;;;;;;5047787;28;20083;-66
2022/06/25 04:20:28;;;;;;;16.63;13.43;;;16.70;99.90;;;;;;5050259;28;20049;-67
2022/06/25 04:22:53;;;;;;;18.95;14.45;;;16.70;99.90;;;;;;5047276;28;20450;-66
2022/06/25 04:25:19;;;;;;;16.23;13.63;;;16.80;99.90;;;;;;5038138;28;20036;-67
2022/06/25 04:30:29;;;;;;;21.08;14.07;;;16.80;99.90;;;;;;5047293;28;20400;-66
2022/06/25 04:32:54;;;;;;;18.80;13.68;;;16.80;99.90;;;;;;5042398;28;20089;-66
2022/06/25 04:35:20;;;;;;;16.88;13.05;;;16.90;99.90;;;;;;5051283;28;20124;-66
2022/06/25 04:37:46;;;;;;;16.27;13.07;;;16.90;99.90;;;;;;5045091;28;20041;-68
2022/06/25 04:40:12;;;;;;;15.15;13.07;;;16.90;99.90;;;;;;5046240;28;20518;-66
2022/06/25 04:42:38;;;;;;;15.98;12.52;;;17.00;99.90;;;;;;5032253;28;20115;-66
2022/06/25 04:45:04;;;;;;;16.08;13.13;;;17.00;99.90;;;;;;5050129;28;20597;-67
2022/06/25 04:47:29;;;;;;;13.55;12.07;;;17.00;99.90;;;;;;5043062;28;20051;-66
2022/06/25 04:49:55;;;;;;;14.38;12.50;;;17.00;99.90;;;;;;5041519;28;20077;-66
2022/06/25 04:52:21;;;;;;;14.80;12.52;;;17.10;99.90;;;;;;5041093;28;20539;-67
2022/06/25 04:54:46;;;;;;;17.42;12.10;;;17.10;99.90;;;;;;5047149;28;20433;-66
2022/06/25 04:57:12;;;;;;;15.05;11.70;;;17.10;99.90;;;;;;5042253;28;20135;-66
2022/06/25 04:59:37;;;;;;;15.75;11.50;;;17.20;99.90;;;;;;5052370;28;20398;-66
2022/06/25 05:02:03;;;;;;;15.00;12.65;;;17.20;99.90;;;;;;5050695;28;20065;-67
2022/06/25 05:04:29;;;;;;;14.35;11.63;;;17.30;99.90;;;;;;5052370;28;20049;-67
2022/06/25 05:06:55;;;;;;;14.27;11.65;;;17.30;99.90;;;;;;5050488;28;20048;-66
2022/06/25 05:09:20;;;;;;;15.70;11.20;;;17.30;99.90;;;;;;5043954;28;20454;-67
2022/06/25 05:11:46;;;;;;;16.38;10.70;;;17.40;99.90;;;;;;5048495;28;20048;-66
2022/06/25 05:14:12;;;;;;;11.73;10.40;;;17.50;99.90;;;;;;5045498;28;20558;-67
2022/06/25 05:16:37;;;;;;;17.98;10.68;;;17.50;99.90;;;;;;5040757;28;20053;-66
2022/06/25 05:19:03;;;;;;;13.20;10.52;;;17.50;99.90;;;;;;5046844;28;20760;-66
2022/06/25 05:21:29;;;;;;;12.23;10.55;;;17.60;99.90;;;;;;5049959;28;20044;-66
2022/06/25 05:23:54;;;;;;;13.52;9.88;;;17.60;99.90;;;;;;5047263;28;20398;-67
2022/06/25 05:26:23;;;;;;;13.85;10.52;;;17.70;99.90;;;;;;5051468;28;20121;-67
2022/06/25 05:28:49;;;;;;;12.18;10.73;;;17.70;99.90;;;;;;5045741;28;20132;-67
2022/06/25 05:31:14;;;;;;;13.95;10.95;;;17.80;99.90;;;;;;5046392;28;20039;-66
2022/06/25 05:33:40;;;;;;;11.57;10.38;;;17.80;99.90;;;;;;5045902;28;20079;-66
2022/06/25 05:36:06;;;;;;;14.80;10.18;;;17.90;99.90;;;;;;5045607;28;20032;-66
2022/06/25 05:38:31;;;;;;;11.98;10.18;;;18.00;99.90;;;;;;5045199;28;20042;-66
2022/06/25 05:40:57;;;;;;;11.80;10.25;;;18.00;99.90;;;;;;5046276;28;20059;-67
2022/06/25 05:43:23;;;;;;;11.15;9.70;;;18.00;99.90;;;;;;5045504;28;20095;-67
2022/06/25 05:45:49;;;;;;;13.15;9.63;;;18.10;99.90;;;;;;5052169;28;20112;-67
2022/06/25 05:48:14;;;;;;;13.63;9.30;;;18.10;99.90;;;;;;5037019;28;20498;-66
2022/06/25 05:50:40;;;;;;;14.60;9.57;;;18.20;99.90;;;;;;5042979;28;20406;-67
2022/06/25 05:53:06;;;;;;;12.27;9.38;;;18.20;99.90;;;;;;5052685;28;20501;-66
2022/06/25 05:55:32;;;;;;;12.48;9.50;;;18.30;99.90;;;;;;5043769;28;20049;-66
2022/06/25 05:57:58;;;;;;;12.00;9.07;;;18.50;99.90;;;;;;5047973;28;20056;-66
2022/06/25 06:00:26;;;;;;;21.25;9.27;;;18.50;99.90;;;;;;5047701;28;20064;-67
2022/06/25 06:02:52;;;;;;;13.30;9.05;;;18.50;99.90;;;;;;5052711;28;20558;-67
2022/06/25 06:05:17;;;;;;;15.05;8.13;;;18.60;99.90;;;;;;5060001;28;20124;-67
2022/06/25 06:07:43;;;;;;;10.07;8.38;;;18.60;99.90;;;;;;5039943;28;20038;-66
2022/06/25 06:10:09;;;;;;;10.45;9.30;;;18.70;99.90;;;;;;5041368;28;20077;-67
2022/06/25 06:12:35;;;;;;;9.82;7.97;;;18.80;99.90;;;;;;5042766;28;20044;-67
2022/06/25 06:15:01;;;;;;;9.18;7.22;;;19.10;99.90;;;;;;5045924;28;20124;-66
2022/06/25 06:17:26;;;;;;;11.68;7.53;;;19.40;99.90;;;;;;5042934;28;20403;-67
2022/06/25 06:19:52;;;;;;;11.05;7.55;;;19.80;99.90;;;;;;5050323;28;20045;-66
2022/06/25 06:22:18;;;;;;;12.27;7.50;;;20.00;99.90;;;;;;5060271;28;20468;-66
2022/06/25 06:24:43;;;;;;;12.95;7.90;;;20.00;99.90;;;;;;5047262;28;20195;-66
2022/06/25 06:27:09;;;;;;;11.13;7.65;;;20.00;99.90;;;;;;5048451;28;20045;-66
2022/06/25 06:29:35;;;;;;;14.73;8.18;;;20.00;99.90;;;;;;5039057;28;20073;-66
2022/06/25 06:32:01;;;;;;;13.23;8.32;;;19.90;99.90;;;;;;5038535;28;20396;-67
2022/06/25 06:34:26;;;;;;;9.70;7.10;;;19.90;99.90;;;;;;5046749;28;20167;-66
2022/06/25 06:36:52;;;;;;;11.23;7.25;;;19.90;99.90;;;;;;5047285;28;20180;-66
2022/06/25 06:39:18;;;;;;;12.02;7.72;;;19.80;99.90;;;;;;5048030;28;20107;-67
2022/06/25 06:41:43;;;;;;;12.40;7.90;;;20.00;99.90;;;;;;5047003;28;20094;-66
2022/06/25 06:44:09;;;;;;;12.68;7.82;;;20.00;99.90;;;;;;5045949;28;20369;-66
2022/06/25 06:46:35;;;;;;;12.48;8.10;;;20.10;99.90;;;;;;5043379;28;20123;-67
2022/06/25 06:49:00;;;;;;;11.95;7.35;;;20.10;99.90;;;;;;5040881;28;20041;-66
2022/06/25 06:51:26;;;;;;;13.80;7.93;;;20.20;99.90;;;;;;5048111;28;20052;-67
2022/06/25 06:53:51;;;;;;;9.95;7.38;;;20.20;99.90;;;;;;5046524;28;20083;-67
2022/06/25 06:56:17;;;;;;;7.93;6.70;;;20.30;99.90;;;;;;5046161;28;20084;-66
2022/06/25 06:58:43;;;;;;;13.00;7.15;;;20.40;99.90;;;;;;5039504;28;20075;-67
2022/06/25 07:01:09;;;;;;;11.80;6.13;;;20.50;99.90;;;;;;5042432;28;20045;-67
2022/06/25 07:03:34;;;;;;;10.10;6.70;;;20.60;99.90;;;;;;5044895;28;20080;-67
2022/06/25 07:06:00;;;;;;;11.82;6.30;;;20.60;99.90;;;;;;5024219;28;20491;-67
2022/06/25 07:08:26;;;;;;;8.75;6.45;;;20.70;99.90;;;;;;5046500;28;20052;-67
2022/06/25 07:10:52;;;;;;;15.27;6.60;;;20.90;99.90;;;;;;5045209;28;20132;-67
2022/06/25 07:13:18;;;;;;;8.82;5.93;;;20.90;99.90;;;;;;5038157;28;20053;-68
2022/06/25 07:15:44;;;;;;;12.40;5.60;;;21.00;99.90;;;;;;5042777;28;20084;-67
2022/06/25 07:18:10;;;;;;;8.60;5.28;;;21.00;99.90;;;;;;5034306;28;20075;-67
2022/06/25 07:20:35;;;;;;;8.70;5.07;;;21.10;99.90;;;;;;5043793;28;20450;-67
2022/06/25 07:23:01;;;;;;;8.45;5.10;;;21.20;99.90;;;;;;5035741;28;20060;-66
2022/06/25 07:25:27;;;;;;;10.82;5.03;;;21.20;99.90;;;;;;5042549;28;20381;-67
2022/06/25 07:27:53;;;;;;;11.35;5.32;;;21.30;99.90;;;;;;5044528;28;20045;-67
2022/06/25 07:30:18;;;;;;;9.48;5.80;;;21.50;99.90;;;;;;5039663;28;20538;-68
2022/06/25 07:32:44;;;;;;;7.85;4.78;;;21.70;99.90;;;;;;5050760;28;20040;-67
2022/06/25 07:35:10;;;;;;;11.38;5.25;;;21.80;99.90;;;;;;5041819;28;20053;-67
2022/06/25 07:37:36;;;;;;;6.95;4.72;;;21.90;99.90;;;;;;5047442;28;20037;-68
2022/06/25 07:40:02;;;;;;;9.07;5.28;;;22.00;99.90;;;;;;5040399;28;20033;-67
2022/06/25 07:42:30;;;;;;;7.20;5.15;;;21.90;99.90;;;;;;5056568;28;20483;-67
2022/06/25 07:44:56;;;;;;;;;;;22.00;99.90;;;;;;5052966;28;20081;-67
2022/06/25 07:47:21;;;;;;;11.07;4.60;;;22.10;99.90;;;;;;5043862;28;19996;-67
2022/06/25 07:52:31;;;;;;;6.05;4.60;;;22.20;99.90;;;;;;5046040;28;20094;-67
2022/06/25 07:54:57;;;;;;;10.18;4.03;;;22.30;99.90;;;;;;5035441;28;20080;-67
2022/06/25 07:57:23;;;;;;;7.05;4.47;;;22.40;99.90;;;;;;5047857;28;20119;-68
2022/06/25 07:59:49;;;;;;;7.47;4.27;;;22.40;99.90;;;;;;5053658;28;20055;-67
2022/06/25 08:02:15;;;;;;;7.80;3.83;;;22.50;99.90;;;;;;5038327;28;20288;-67
2022/06/25 08:04:40;;;;;;;6.68;3.67;;;22.60;99.90;;;;;;5048413;28;20530;-67
2022/06/25 08:07:06;;;;;;;11.50;4.22;;;22.70;99.90;;;;;;5037479;28;20140;-68
2022/06/25 08:09:34;;;;;;;8.23;3.33;;;22.70;99.90;;;;;;5040924;28;20042;-66
2022/06/25 08:11:59;;;;;;;9.73;3.20;;;22.80;99.90;;;;;;5040217;28;20106;-68
2022/06/25 08:14:25;;;;;;;6.10;3.05;;;22.80;99.90;;;;;;5038300;28;20429;-66
2022/06/25 08:16:51;;;;;;;7.55;3.30;;;22.80;99.90;;;;;;5050675;28;20041;-69
2022/06/25 08:19:16;;;;;;;4.00;2.70;;;22.80;99.90;;;;;;5053636;28;20041;-67
2022/06/25 08:21:42;;;;;;;5.13;3.15;;;22.90;99.90;;;;;;5050501;28;20037;-67
2022/06/25 08:24:08;;;;;;;6.25;2.80;;;23.00;99.90;;;;;;5047928;28;20075;-66
2022/06/25 08:26:34;;;;;;;6.65;2.97;;;23.20;99.90;;;;;;5045103;28;20099;-67
2022/06/25 08:28:59;;;;;;;5.50;2.65;;;23.30;99.90;;;;;;5035043;28;20042;-66
2022/06/25 08:31:25;;;;;;;7.45;3.15;;;23.40;99.90;;;;;;5042475;28;20040;-66
2022/06/25 08:33:51;;;;;;;10.35;2.92;;;23.50;99.90;;;;;;5050921;28;20069;-66
2022/06/25 08:36:16;;;;;;;6.15;2.45;;;23.60;99.90;;;;;;5063745;28;20050;-66
2022/06/25 08:38:42;;;;;;;8.27;3.15;;;23.70;99.90;;;;;;5051285;28;20048;-66
2022/06/25 08:41:11;;;;;;;7.68;2.80;;;23.80;99.90;;;;;;5051652;28;20037;-67
2022/06/25 08:43:38;;;;;;;8.48;2.45;;;24.00;99.90;;;;;;5052547;28;20467;-68
2022/06/25 08:46:04;;;;;;;5.65;2.03;;;24.10;99.90;;;;;;5047312;28;20111;-67
2022/06/25 08:48:32;;;;;;;5.07;2.47;;;24.20;99.90;;;;;;5044293;28;20503;-66
2022/06/25 08:50:59;;;;;;;8.32;2.28;;;24.30;99.90;;;;;;5054012;28;20503;-67
2022/06/25 08:53:30;;;;;;;7.78;2.45;;;24.30;99.90;;;;;;5048228;28;20408;-67
2022/06/25 08:55:56;;;;;;;6.55;2.45;;;24.40;99.90;;;;;;5042732;28;20045;-66
2022/06/25 08:58:22;;;;;;;6.40;2.30;;;24.30;99.90;;;;;;5050411;28;20395;-66
2022/06/25 09:00:48;;;;;;;7.75;2.35;;;24.10;99.90;;;;;;5059986;28;20391;-66
2022/06/25 09:03:14;;;;;;;5.40;2.38;;;23.90;99.90;;;;;;5038198;28;20522;-67
2022/06/25 09:05:42;;;;;;;4.88;2.38;;;23.60;99.90;;;;;;5044528;28;20053;-67
2022/06/25 09:08:08;;;;;;;;;;;23.50;99.90;;;;;;5040204;28;20124;-67
2022/06/25 09:10:35;;;;;;;7.18;2.85;;;23.40;99.90;;;;;;5042121;28;19931;-66
2022/06/25 09:13:06;;;;;;;6.28;2.75;;;23.30;99.90;;;;;;5048488;28;20041;-68
2022/06/25 09:15:39;;;;;;;5.35;2.40;;;23.40;99.90;;;;;;5039506;28;20107;-67
2022/06/25 09:18:08;;;;;;;8.13;2.80;;;23.50;99.90;;;;;;5046615;28;20060;-67
2022/06/25 09:20:33;;;;;;;4.80;2.80;;;23.70;99.90;;;;;;5050698;28;20483;-67
2022/06/25 09:23:05;;;;;;;6.60;2.35;;;23.80;99.90;;;;;;5065979;28;20041;-67
2022/06/25 09:25:33;;;;;;;4.32;2.35;;;23.90;99.90;;;;;;5048220;28;20059;-67
2022/06/25 09:27:59;;;;;;;5.45;2.03;;;23.90;99.90;;;;;;5049508;28;20063;-66
2022/06/25 09:30:28;;;;;;;3.65;1.83;;;23.80;99.90;;;;;;5053052;28;20053;-67
2022/06/25 09:32:59;;;;;;;4.05;1.92;;;23.80;99.90;;;;;;5040932;28;20048;-66
2022/06/25 09:35:35;;;;;;;3.67;1.80;;;24.00;99.90;;;;;;5042258;28;20041;-66
2022/06/25 09:38:16;;;;;;;2.65;1.60;;;24.10;99.90;;;;;;5040849;28;20413;-67
2022/06/25 09:40:51;;;;;;;6.63;2.20;;;24.20;99.90;;;;;;5044811;28;20087;-67
2022/06/25 09:43:21;;;;;;;4.90;2.00;;;24.30;99.90;;;;;;5049981;28;20049;-68
2022/06/25 09:45:50;;;;;;;4.97;2.05;;;24.30;99.90;;;;;;5026669;28;20049;-67
2022/06/25 09:48:20;;;;;;;5.05;2.00;;;24.40;99.90;;;;;;5044088;28;20025;-67
2022/06/25 09:51:04;;;;;;;5.03;1.90;;;24.60;99.90;;;;;;5032836;28;20053;-68
2022/06/25 09:53:30;;;;;;;3.80;1.92;;;24.80;99.90;;;;;;5038700;28;20044;-66
2022/06/25 09:55:56;;;;;;;3.42;1.88;;;25.10;99.90;;;;;;5045252;28;20573;-66
2022/06/25 09:58:23;;;;;;;6.65;1.95;;;25.10;99.90;;;;;;5032057;28;20082;-67
2022/06/25 10:00:49;;;;;;;7.10;1.80;;;25.30;99.90;;;;;;5042466;28;20495;-66
2022/06/25 10:03:15;;;;;;;5.47;1.48;;;25.40;99.90;;;;;;5043633;28;20391;-66
2022/06/25 10:05:41;;;;;;;5.10;1.90;;;25.40;99.90;;;;;;5042394;28;20049;-67
2022/06/25 10:08:11;;;;;;;6.33;2.10;;;25.40;99.90;;;;;;5049045;28;20085;-67
2022/06/25 10:10:43;;;;;;;2.65;1.60;;;25.40;99.90;;;;;;5044368;28;20045;-67
2022/06/25 10:13:09;;;;;;;8.18;1.63;;;25.40;99.90;;;;;;5037592;28;20080;-67
2022/06/25 10:15:35;;;;;;;5.15;1.63;;;25.30;99.90;;;;;;5038700;28;20356;-68
2022/06/25 10:18:09;;;;;;;4.40;1.80;;;25.20;99.90;;;;;;5047014;28;20128;-71
2022/06/25 10:20:36;;;;;;;5.25;1.40;;;25.10;99.90;;;;;;5040041;28;20040;-67
2022/06/25 10:23:04;;;;;;;4.45;1.75;;;25.10;99.90;;;;;;5033154;28;20075;-66
2022/06/25 10:25:31;;;;;;;5.65;1.77;;;25.10;99.90;;;;;;5045581;28;20052;-67
2022/06/25 10:28:06;;;;;;;3.20;1.52;;;25.10;99.90;;;;;;5047850;28;20049;-66
2022/06/25 10:30:50;;;;;;;6.47;1.73;;;25.10;99.90;;;;;;5043910;28;20419;-65
2022/06/25 10:33:24;;;;;;;18.63;14.82;;;25.10;99.90;;;;;;5044954;28;20569;-66
2022/06/25 10:35:52;;;;;;;4.88;2.00;;;25.20;99.90;;;;;;5041900;28;20571;-67
2022/06/25 10:38:22;;;;;;;4.93;1.60;;;25.20;99.90;;;;;;5041357;28;20045;-66
2022/06/25 10:43:50;;;;;;;3.85;1.83;;;25.40;99.90;;;;;;5044281;28;20051;-67
2022/06/25 10:46:30;;;;;;;4.90;2.05;;;25.70;99.90;;;;;;5044006;28;20055;-67
2022/06/25 10:49:19;;;;;;;5.70;2.13;;;26.00;99.90;;;;;;5033836;28;20155;-67
2022/06/25 10:51:48;;;;;;;;;;;26.30;99.30;;;;;;5043335;28;20499;-65
2022/06/25 10:54:34;;;;;;;5.25;1.65;;;26.30;98.90;;;;;;5029427;28;19929;-67
2022/06/25 10:57:04;;;;;;;2.85;1.67;;;26.10;99.90;;;;;;5043561;28;20041;-67
2022/06/25 10:59:34;;;;;;;4.43;1.50;;;25.90;99.90;;;;;;5052459;28;20091;-67
2022/06/25 11:02:10;;;;;;;8.35;1.60;;;25.70;99.90;;;;;;5036373;28;20041;-67
2022/06/25 11:04:37;;;;;;;3.22;1.50;;;25.50;99.90;;;;;;5049793;28;20049;-67
2022/06/25 11:07:12;;;;;;;5.13;1.75;;;25.30;99.90;;;;;;5042719;28;20404;-67
2022/06/25 11:09:39;;;;;;;4.40;1.58;;;25.00;99.90;;;;;;5047567;28;20537;-66
2022/06/25 11:12:06;;;;;;;;;;;24.70;99.90;;;;;;5052468;28;20053;-66
2022/06/25 11:14:32;;;;;;;4.93;2.17;;;24.40;99.90;;;;;;5041977;28;19920;-66
2022/06/25 11:17:07;;;;;;;6.07;1.70;;;24.30;99.90;;;;;;5044070;28;20033;-65
2022/06/25 11:19:32;;;;;;;3.42;1.77;;;24.20;99.90;;;;;;5032777;28;20046;-65
2022/06/25 11:22:02;;;;;;;4.55;1.83;;;24.00;99.90;;;;;;5056461;28;20041;-65
2022/06/25 11:24:29;;;;;;;3.20;1.50;;;23.80;99.90;;;;;;5043295;28;20056;-66
2022/06/25 11:29:49;;;;;;;5.03;1.95;;;23.60;99.90;;;;;;5047124;28;20813;-65
2022/06/25 11:32:21;;;;;;;5.28;2.08;;;23.40;99.90;;;;;;5036237;28;20041;-66
2022/06/25 11:34:51;;;;;;;3.63;1.83;;;23.30;99.90;;;;;;5037512;28;20406;-66
2022/06/25 11:37:18;;;;;;;5.13;1.90;;;23.20;99.90;;;;;;5044443;28;20056;-65
2022/06/25 11:39:46;;;;;;;3.75;1.90;;;23.10;99.90;;;;;;5039746;28;20057;-66
2022/06/25 11:42:12;;;;;;;4.32;1.77;;;23.00;99.90;;;;;;5036350;28;20132;-67
2022/06/25 11:44:59;;;;;;;7.45;2.10;;;23.00;99.90;;;;;;5043273;28;20052;-67
2022/06/25 11:47:26;;;;;;;5.07;2.00;;;23.10;99.90;;;;;;5037394;28;20049;-67
2022/06/25 11:49:53;;;;;;;4.70;1.90;;;23.10;99.90;;;;;;5042503;28;20411;-68
2022/06/25 11:52:21;;;;;;;6.47;1.58;;;23.10;99.90;;;;;;5040442;28;20060;-67
2022/06/25 11:54:47;;;;;;;5.00;1.90;;;23.10;99.90;;;;;;5046189;28;20131;-67
2022/06/25 11:57:17;;;;;;;3.33;1.80;;;23.10;99.90;;;;;;5038667;28;20047;-67
2022/06/25 11:59:43;;;;;;;4.88;2.08;;;23.20;99.90;;;;;;5057633;28;20339;-67
2022/06/25 12:02:09;;;;;;;5.22;1.95;;;23.40;99.90;;;;;;5034808;28;20472;-68
2022/06/25 12:04:58;;;;;;;4.10;1.70;;;23.80;99.90;;;;;;5038380;28;20519;-68
2022/06/25 12:07:29;;;;;;;2.95;1.70;;;24.30;99.90;;;;;;5039505;28;20555;-67
2022/06/25 12:10:00;;;;;;;5.43;1.52;;;24.50;99.90;;;;;;5043029;28;20049;-67
2022/06/25 12:12:27;;;;;;;5.70;1.88;;;24.50;99.90;;;;;;5044299;28;20076;-67
2022/06/25 12:14:55;;;;;;;4.25;1.60;;;24.40;99.90;;;;;;5041336;28;20094;-66
2022/06/25 12:17:20;;;;;;;6.70;1.48;;;24.20;99.90;;;;;;5037478;28;20486;-67
2022/06/25 12:19:51;;;;;;;3.95;1.70;;;24.20;99.90;;;;;;5034505;28;20394;-67
2022/06/25 12:22:28;;;;;;;5.28;1.55;;;24.00;99.90;;;;;;5054581;28;20049;-66
2022/06/25 12:24:57;;;;;;;4.88;1.55;;;23.90;99.90;;;;;;5033518;28;20106;-65
2022/06/25 12:27:24;;;;;;;5.65;1.73;;;23.80;99.90;;;;;;5048564;28;20037;-67
2022/06/25 12:29:53;;;;;;;3.55;1.40;;;23.60;99.90;;;;;;5037897;28;20044;-66
2022/06/25 12:32:19;;;;;;;6.80;1.92;;;23.50;99.90;;;;;;5040144;28;20439;-66
2022/06/25 12:34:47;;;;;;;3.03;1.35;;;23.40;99.90;;;;;;5043613;28;20037;-67
2022/06/25 12:37:29;;;;;;;3.15;1.52;;;23.30;99.90;;;;;;5047845;28;20407;-69
2022/06/25 12:39:57;;;;;;;3.85;1.48;;;23.10;99.90;;;;;;5045460;28;20037;-69
2022/06/25 12:42:29;;;;;;;8.93;1.83;;;23.00;99.90;;;;;;5066127;28;20585;-68
2022/06/25 12:44:56;;;;;;;3.10;1.60;;;22.90;99.90;;;;;;5049474;28;20041;-68
2022/06/25 12:47:22;;;;;;;3.47;1.80;;;22.80;99.90;;;;;;5045843;28;20053;-68
2022/06/25 12:49:53;;;;;;;4.43;1.80;;;22.70;99.90;;;;;;5050267;28;20044;-68
2022/06/25 12:52:22;;;;;;;4.32;1.90;;;22.70;99.90;;;;;;5045541;28;20045;-68
2022/06/25 12:54:53;;;;;;;5.97;2.05;;;22.60;99.90;;;;;;5045134;28;20049;-68